Bookmark and Share
Track history (hours):
 

Drifting buoy 51889

Last reported at 2012-Sep-28 21:33 UTC. Time now 2014-Apr-23 19:20 UTC.
Position S 13°39' E 166°24'.
Warning: this ship's position is years out of date!

Water temperature 28.1 ° C

NotesDate/timePositionNaut miles runAvg speedWind from/ knotsBaromVisibWave heightAir tempDewpointWater temp
2012-Sep-28 21:33S 13°39' E 166°24'0 0.0 28.1
2012-Sep-28 19:30S 13°39' E 166°24'0 0.0 28.1
2012-Sep-28 15:49S 13°39' E 166°24'1 1.3 28.0
2012-Sep-28 14:51S 13°38' E 166°25'0 0.0 28.0
2012-Sep-28 14:06S 13°38' E 166°25'0 0.0 28.0
2012-Sep-28 13:09S 13°38' E 166°25'2 0.7 28.0
2012-Sep-28 10:58S 13°38' E 166°26'0 0.0 28.0
2012-Sep-28 10:25S 13°38' E 166°26'0 0.0 28.0
2012-Sep-28 09:15S 13°38' E 166°26'0 0.0 28.0
2012-Sep-28 06:18S 13°38' E 166°26'0 0.0 28.1
2012-Sep-28 04:31S 13°38' E 166°26'1 1.0 28.1
2012-Sep-28 03:36S 13°38' E 166°27'1 0.4 28.1
2012-Sep-28 02:00S 13°38' E 166°28'212.4 28.1
2012-Sep-28 01:51S 13°38' E 166°30'0 0.0 28.1
2012-Sep-27 22:28S 13°38' E 166°30'0 0.4 28.1
2012-Sep-27 21:48S 13°38' E 166°30'1 4.1 28.1
2012-Sep-27 21:30S 13°38' E 166°31'2 1.5 28.1
2012-Sep-27 20:12S 13°38' E 166°33'0 0.0 28.1
2012-Sep-27 17:51S 13°38' E 166°33'0 0.0 28.2
2012-Sep-27 16:00S 13°38' E 166°33'0 0.0 28.2
2012-Sep-27 15:00S 13°38' E 166°33'0 0.7 28.3
2012-Sep-27 14:18S 13°37' E 166°34'0 0.5 28.3
2012-Sep-27 13:19S 13°37' E 166°34'1 0.6 28.3
2012-Sep-27 11:18S 13°37' E 166°35'0 0.0
2012-Sep-27 11:15S 13°37' E 166°35'1 0.9 28.3
2012-Sep-27 10:37S 13°37' E 166°36'0 5.0
2012-Sep-27 10:34S 13°36' E 166°36'1 1.3 28.3
2012-Sep-27 09:40S 13°36' E 166°37'2 0.4 28.3
2012-Sep-27 05:01S 13°35' E 166°38'0 0.0 28.4
2012-Sep-27 04:39S 13°35' E 166°38'1 0.6 28.4
2012-Sep-27 03:46S 13°35' E 166°39'0 0.0 28.4
2012-Sep-27 03:06S 13°35' E 166°39'0 0.0 28.4
2012-Sep-27 03:03S 13°35' E 166°39'0 0.3 28.4
2012-Sep-27 02:06S 13°34' E 166°39'2 0.5 28.4
2012-Sep-26 22:48S 13°34' E 166°41'0 0.0 28.4
2012-Sep-26 22:43S 13°34' E 166°41'0 0.5 28.4
2012-Sep-26 22:06S 13°34' E 166°41'0 4.1 28.4
2012-Sep-26 22:00S 13°34' E 166°40'1 0.9 28.4
2012-Sep-26 21:06S 13°34' E 166°41'114.6 28.4
2012-Sep-26 21:00S 13°33' E 166°43'2 0.6 28.4
2012-Sep-26 18:16S 13°32' E 166°44'1 0.3 28.4
2012-Sep-26 16:34S 13°32' E 166°44'0 0.0 28.4
2012-Sep-26 16:09S 13°32' E 166°44'110.5 28.4
2012-Sep-26 16:03S 13°32' E 166°45'0 0.0 28.4
2012-Sep-26 15:10S 13°32' E 166°45'0 3.1 28.5
2012-Sep-26 15:04S 13°31' E 166°45'0 0.0 28.5
2012-Sep-26 14:30S 13°31' E 166°45'1 1.0 28.5
2012-Sep-26 13:31S 13°31' E 166°46'1 0.5 28.5
2012-Sep-26 10:49S 13°30' E 166°47'1 0.6 28.4
2012-Sep-26 09:54S 13°30' E 166°48'0 0.4 28.4
2012-Sep-26 09:07S 13°30' E 166°48'3 0.8 28.4
2012-Sep-26 05:28S 13°31' E 166°51'0 0.0 28.4
2012-Sep-26 04:54S 13°31' E 166°51'1 0.8 28.4
2012-Sep-26 03:54S 13°30' E 166°52'0 0.7 28.4
2012-Sep-26 03:15S 13°30' E 166°52'1 0.7 28.4
2012-Sep-26 02:16S 13°29' E 166°53'2 0.8 28.4
2012-Sep-25 23:09S 13°29' E 166°55'0 0.0 28.5
2012-Sep-25 22:19S 13°29' E 166°55'1 5.6 28.5
2012-Sep-25 22:12S 13°30' E 166°56'0 0.3 28.5
2012-Sep-25 20:39S 13°30' E 166°55'1 0.3 28.5
2012-Sep-25 16:21S 13°29' E 166°56'0 1.9 28.5
2012-Sep-25 16:15S 13°29' E 166°56'0 0.5 28.5
2012-Sep-25 15:22S 13°29' E 166°56'0 1.9 28.4
2012-Sep-25 15:16S 13°29' E 166°56'0 0.6 28.4
2012-Sep-25 14:40S 13°29' E 166°57'1 0.6 28.5
2012-Sep-25 13:43S 13°28' E 166°57'2 1.0 28.5
2012-Sep-25 12:00S 13°28' E 166°59'0 0.4 28.5
2012-Sep-25 11:01S 13°28' E 166°58'0 0.0 28.6
2012-Sep-25 10:21S 13°28' E 166°58'0 7.4
2012-Sep-25 10:19S 13°27' E 166°58'0 3.7 28.6
2012-Sep-25 10:15S 13°28' E 166°58'0 0.0 28.6
2012-Sep-25 09:31S 13°28' E 166°58'240.1 28.6
2012-Sep-25 09:28S 13°27' E 167°00'0 0.0 28.6
2012-Sep-25 09:18S 13°27' E 167°00'0 0.0 28.6
2012-Sep-25 07:31S 13°27' E 167°00'0 0.0 28.7
2012-Sep-25 05:09S 13°27' E 167°00'1 9.3 28.7
2012-Sep-25 05:04S 13°27' E 167°01'0 0.0 28.7
2012-Sep-25 04:07S 13°27' E 167°01'1 0.7 28.7
2012-Sep-25 03:24S 13°27' E 167°01'1 0.8 28.7
2012-Sep-25 02:28S 13°26' E 167°02'210.0 28.7
2012-Sep-25 02:19S 13°26' E 167°03'0 0.0 28.7
2012-Sep-25 00:45S 13°26' E 167°03'0 0.0 28.7
2012-Sep-24 23:28S 13°26' E 167°03'1 0.6 28.5
2012-Sep-24 22:28S 13°26' E 167°04'0 4.8 28.5
2012-Sep-24 22:25S 13°26' E 167°04'0 0.8 28.5
2012-Sep-24 21:51S 13°26' E 167°04'0 0.8 28.5
2012-Sep-24 21:45S 13°26' E 167°04'0 0.5 28.5
2012-Sep-24 21:03S 13°27' E 167°04'0 5.4 28.4
2012-Sep-24 21:01S 13°26' E 167°04'0 0.5 28.4
2012-Sep-24 20:51S 13°26' E 167°04'1 0.7 28.4
2012-Sep-24 19:01S 13°26' E 167°05'0 0.0 28.4
2012-Sep-24 16:33S 13°26' E 167°05'0 0.0 28.4
2012-Sep-24 16:27S 13°26' E 167°05'1 1.1 28.4
2012-Sep-24 15:31S 13°26' E 167°06'0 0.7 28.5
2012-Sep-24 14:52S 13°25' E 167°07'1 0.6 28.5
2012-Sep-24 13:54S 13°25' E 167°07'2 0.6 28.5
2012-Sep-24 11:15S 13°26' E 167°09'2 0.9 28.6
2012-Sep-24 09:00S 13°25' E 167°11'1 1.7 28.6
2012-Sep-24 08:09S 13°26' E 167°12'0 0.0 28.7
2012-Sep-24 07:51S 13°26' E 167°12'0 0.0 28.7
2012-Sep-24 06:36S 13°26' E 167°12'0 0.3 28.7
2012-Sep-24 05:16S 13°26' E 167°12'1 1.3 28.7
2012-Sep-24 04:15S 13°26' E 167°14'0 0.0 28.7
2012-Sep-24 03:42S 13°26' E 167°14'0 0.0 28.7
2012-Sep-24 03:39S 13°26' E 167°14'2 1.9 28.7
2012-Sep-24 02:40S 13°26' E 167°15'2 1.2 28.8
2012-Sep-24 00:58S 13°27' E 167°17'0 0.0 28.8
2012-Sep-23 23:46S 13°27' E 167°17'0 0.0 28.7
2012-Sep-23 22:40S 13°27' E 167°17'0 3.8 28.6
2012-Sep-23 22:36S 13°27' E 167°17'1 1.7 28.6
2012-Sep-23 22:09S 13°28' E 167°18'1 0.7 28.5
2012-Sep-23 21:03S 13°28' E 167°18'0 0.0 28.5
2012-Sep-23 20:27S 13°28' E 167°18'1 0.9 28.5
2012-Sep-23 19:48S 13°28' E 167°19'1 0.5 28.5
2012-Sep-23 17:51S 13°28' E 167°20'1 0.5 28.5
2012-Sep-23 16:43S 13°29' E 167°20'0 4.5 28.6
2012-Sep-23 16:37S 13°28' E 167°21'0 0.0 28.6
2012-Sep-23 15:43S 13°28' E 167°21'0 0.3 28.6
2012-Sep-23 15:03S 13°28' E 167°21'0 0.4 28.6
2012-Sep-23 14:04S 13°28' E 167°21'1 0.5 28.6
2012-Sep-23 11:25S 13°27' E 167°22'1 2.0 28.7
2012-Sep-23 11:00S 13°28' E 167°21'2 1.8 28.6
2012-Sep-23 09:52S 13°26' E 167°23'1 2.1 28.7
2012-Sep-23 09:22S 13°27' E 167°22'1 0.9 28.7
2012-Sep-23 08:09S 13°26' E 167°23'2 0.8 28.7
2012-Sep-23 05:24S 13°27' E 167°25'1 0.4 29.0
2012-Sep-23 03:49S 13°27' E 167°25'1 0.7 29.0
2012-Sep-23 02:51S 13°26' E 167°26'1 0.7 28.9
2012-Sep-23 02:06S 13°26' E 167°26'1 0.6 29.0
2012-Sep-23 01:09S 13°26' E 167°27'0 0.0
2012-Sep-22 22:51S 13°26' E 167°27'0 0.9 28.6
2012-Sep-22 22:31S 13°26' E 167°27'1 0.4 28.6
2012-Sep-22 21:16S 13°26' E 167°28'0 0.0 28.5
2012-Sep-22 20:49S 13°26' E 167°28'0 5.3 28.5
2012-Sep-22 20:45S 13°26' E 167°28'0 0.2 28.5
2012-Sep-22 18:13S 13°26' E 167°28'0 0.0 28.4
2012-Sep-22 16:54S 13°26' E 167°28'1 1.7 28.5
2012-Sep-22 16:31S 13°26' E 167°28'0 0.0 28.5
2012-Sep-22 15:52S 13°26' E 167°28'0 0.1 28.5
2012-Sep-22 15:15S 13°26' E 167°28'0 0.4 28.5
2012-Sep-22 14:15S 13°26' E 167°29'1 0.2 28.5
2012-Sep-22 11:24S 13°25' E 167°28'012.6 28.5
2012-Sep-22 11:22S 13°25' E 167°29'0 0.0 28.5
2012-Sep-22 09:57S 13°25' E 167°29'1 4.8 28.5
2012-Sep-22 09:43S 13°24' E 167°29'0 0.0 28.5
2012-Sep-22 08:21S 13°24' E 167°29'1 0.3 28.5
2012-Sep-22 05:24S 13°23' E 167°30'1 0.5 28.6
2012-Sep-22 04:03S 13°23' E 167°30'0 0.0 28.6
2012-Sep-22 04:00S 13°23' E 167°30'0 0.4 28.6
2012-Sep-22 03:03S 13°23' E 167°30'0 0.0 28.7
2012-Sep-22 03:00S 13°23' E 167°30'1 1.1 28.7
2012-Sep-22 02:18S 13°22' E 167°31'0 0.0
2012-Sep-22 01:21S 13°22' E 167°31'0 0.1 28.6
2012-Sep-21 22:51S 13°22' E 167°31'0 0.3 28.4
2012-Sep-21 21:27S 13°22' E 167°32'0 0.0 28.4
2012-Sep-21 21:12S 13°22' E 167°32'0 0.2 28.4
2012-Sep-21 18:54S 13°23' E 167°32'0 0.3 28.4
2012-Sep-21 18:31S 13°23' E 167°32'0 0.0 28.4
2012-Sep-21 17:03S 13°23' E 167°32'0 1.7 28.4
2012-Sep-21 17:00S 13°23' E 167°32'0 0.2 28.4
2012-Sep-21 16:00S 13°23' E 167°32'0 0.0 28.5
2012-Sep-21 15:24S 13°23' E 167°32'1 0.7 28.6
2012-Sep-21 14:24S 13°23' E 167°32'1 0.3 28.7
2012-Sep-21 10:13S 13°24' E 167°32'0 0.9 29.1
2012-Sep-21 10:09S 13°24' E 167°32'0 3.0 29.1
2012-Sep-21 10:04S 13°24' E 167°31'0 0.3 29.1
2012-Sep-21 09:27S 13°25' E 167°32'0 0.2 29.2
2012-Sep-21 08:34S 13°25' E 167°31'1 0.3 29.5
2012-Sep-21 05:54S 13°26' E 167°31'0 0.0 30.0
2012-Sep-21 05:49S 13°26' E 167°31'0 0.3 30.0
2012-Sep-21 04:09S 13°26' E 167°31'0 0.2 30.0
2012-Sep-21 03:12S 13°26' E 167°31'0 2.8 30.1
2012-Sep-21 03:07S 13°26' E 167°32'1 0.5 30.1
2012-Sep-21 01:33S 13°27' E 167°32'0 0.0 29.9
2012-Sep-21 01:28S 13°27' E 167°32'0 0.2 29.9
2012-Sep-20 23:09S 13°27' E 167°31'1 0.5 28.9
2012-Sep-20 21:39S 13°27' E 167°32'0 0.0 28.4
2012-Sep-20 21:33S 13°27' E 167°32'0 8.7 28.4
2012-Sep-20 21:30S 13°28' E 167°32'0 0.0 28.4
2012-Sep-20 20:57S 13°28' E 167°32'0 0.2 28.3
2012-Sep-20 19:57S 13°28' E 167°31'0 4.2 28.3
2012-Sep-20 19:54S 13°28' E 167°32'1 0.6 28.2
2012-Sep-20 18:57S 13°28' E 167°32'0 0.0 28.2
2012-Sep-20 17:24S 13°28' E 167°32'0 1.8 28.2
2012-Sep-20 17:13S 13°28' E 167°32'1 0.5 28.3
2012-Sep-20 15:36S 13°28' E 167°33'0 0.4 28.2
2012-Sep-20 14:36S 13°28' E 167°33'0 0.1 28.2
2012-Sep-20 13:52S 13°28' E 167°33'0 0.0 28.2
2012-Sep-20 12:54S 13°28' E 167°33'1 0.9 28.3
2012-Sep-20 12:00S 13°28' E 167°34'0 0.1 28.3
2012-Sep-20 10:27S 13°28' E 167°34'0 2.5 28.3
2012-Sep-20 10:25S 13°28' E 167°34'1 1.0 28.3
2012-Sep-20 09:49S 13°29' E 167°34'2 1.4 28.4
2012-Sep-20 08:37S 13°29' E 167°36'0 0.2 28.4
2012-Sep-20 06:13S 13°29' E 167°36'1 0.8 28.6
2012-Sep-20 04:25S 13°30' E 167°37'0 1.7 28.7
2012-Sep-20 04:22S 13°30' E 167°37'0 0.4 28.7
2012-Sep-20 03:24S 13°31' E 167°37'0 1.7 28.8
2012-Sep-20 03:21S 13°31' E 167°37'0 0.3 28.8
2012-Sep-20 01:39S 13°31' E 167°38'1 0.3 28.7
2012-Sep-19 23:30S 13°31' E 167°38'1 0.7 28.4
2012-Sep-19 21:54S 13°31' E 167°39'232.7 28.3
2012-Sep-19 21:51S 13°32' E 167°41'1 1.9 28.3
2012-Sep-19 21:18S 13°31' E 167°40'1 0.9 28.3
2012-Sep-19 20:10S 13°32' E 167°41'1 1.9 28.3
2012-Sep-19 19:43S 13°32' E 167°41'1 0.6 28.3
2012-Sep-19 17:58S 13°33' E 167°43'0 0.0 28.3
2012-Sep-19 17:48S 13°33' E 167°43'1 1.5 28.3
2012-Sep-19 17:22S 13°33' E 167°43'0 0.1 28.3
2012-Sep-19 16:07S 13°33' E 167°43'0 0.6 28.3
2012-Sep-19 15:48S 13°33' E 167°43'1 0.7 28.3
2012-Sep-19 14:46S 13°34' E 167°43'1 7.6 28.3
2012-Sep-19 14:39S 13°34' E 167°44'0 0.6 28.3
2012-Sep-19 14:04S 13°34' E 167°44'0 0.0 28.3
2012-Sep-19 13:04S 13°34' E 167°44'1 0.5 28.3
2012-Sep-19 10:45S 13°35' E 167°45'0 0.6 28.4
2012-Sep-19 10:39S 13°35' E 167°45'1 0.8 28.4
2012-Sep-19 09:03S 13°35' E 167°46'0 9.9 28.4
2012-Sep-19 09:00S 13°34' E 167°46'1 0.2 28.4
2012-Sep-19 06:34S 13°34' E 167°47'0 0.0 28.6
2012-Sep-19 04:33S 13°34' E 167°47'0 0.3 28.8
2012-Sep-19 03:34S 13°35' E 167°47'0 0.0 28.7
2012-Sep-19 03:31S 13°35' E 167°47'1 0.8 28.7
2012-Sep-19 02:51S 13°35' E 167°47'0 0.3 28.7
2012-Sep-19 01:54S 13°35' E 167°47'0 0.0 28.6
2012-Sep-19 01:51S 13°35' E 167°47'1 0.3 28.6
2012-Sep-18 23:51S 13°35' E 167°48'1 0.5 28.3
2012-Sep-18 22:15S 13°35' E 167°48'0 2.4 28.3
2012-Sep-18 22:03S 13°35' E 167°49'0 0.9 28.3
2012-Sep-18 21:54S 13°35' E 167°49'   28.3

Dump ship's entire track history

sailing weather and tide predictions

Buoy 51889